Latest Weather Observations for Mount William

IDV60801

Issued at 7:22 am EST Monday 28 September 2020 (issued every 10 minutes, with the page automatically refreshed every 10 minutes)

About weather observations | Map of weather stations | Latest weather observations for VIC | Other Formats
Station Details ID: 079103 Name: MOUNT WILLIAM Lat: -37.30 Lon: 142.60 Height: 1150.0 m
Data from the previous 72 hours. | See also: Recent months at Mount William
Date/Time
EST
Temp
°C
App
Temp
°C
Dew
Point
°C
Rel
Hum
%
Delta-T
°C
Wind Press
QNH
hPa
Press
MSL
hPa
Rain since
9am
mm
Dir  Spd
km/h
Gust
km/h
Spd
kts
Gust
kts
28/07:00am 1.5 -2.0 -3.0 72 1.7 WSW 6 7 3 4 - - 0.0
28/06:30am 1.0 -2.6 -2.2 79 1.2 WSW 7 11 4 6 - - 0.0
28/06:00am 1.2 -2.7 -1.7 81 1.1 WSW 9 11 5 6 - - 0.0
28/05:30am 1.3 -3.7 -0.9 85 0.8 WSW 15 19 8 10 - - 0.0
28/05:00am 1.5 -3.8 -0.6 86 0.8 WSW 17 22 9 12 - - 0.0
28/04:30am 1.5 -3.5 -0.9 84 0.9 WSW 15 20 8 11 - - 0.0
28/04:00am 1.5 -3.8 -0.7 85 0.9 WSW 17 20 9 11 - - 0.0
28/03:30am 1.7 -4.1 -0.4 86 0.8 WSW 20 24 11 13 - - 0.0
28/03:00am 1.7 -4.2 -0.5 85 0.9 WSW 20 24 11 13 - - 0.0
28/02:30am 1.7 -3.9 -0.1 88 0.7 WSW 19 20 10 11 - - 0.0
28/02:00am 1.3 -4.0 -0.3 89 0.6 WSW 17 19 9 10 - - 0.0
28/01:30am 1.4 -3.0 0.1 91 0.5 WSW 13 15 7 8 - - 0.0
28/01:00am 1.5 -3.0 0.0 90 0.6 WSW 13 15 7 8 - - 0.0
28/12:30am 1.6 -2.9 0.0 89 0.6 WSW 13 15 7 8 - - 0.0
28/12:00am 1.2 -3.6 0.0 92 0.5 WSW 15 17 8 9 - - 0.0
 
Date/Time
EST
Temp
°C
App
Temp
°C
Dew
Point
°C
Rel
Hum
%
Delta-T
°C
Wind Press
QNH
hPa
Press
MSL
hPa
Rain since
9am
mm
Dir  Spd
km/h
Gust
km/h
Spd
kts
Gust
kts
27/11:30pm 1.3 -3.1 0.3 93 0.4 WSW 13 13 7 7 - - 0.0
27/11:00pm 0.8 -2.2 0.8 100 0.0 SW 6 7 3 4 - - 0.0
27/10:30pm 0.1 -4.0 0.1 100 0.0 S 11 13 6 7 - - 0.0
27/10:00pm 0.4 -4.4 0.4 100 0.0 SSE 15 20 8 11 - - 0.0
27/09:30pm 0.5 -3.1 0.5 100 0.0 SSE 9 15 5 8 - - 0.0
27/09:00pm 1.0 -3.4 0.4 96 0.2 SSE 13 17 7 9 - - 0.0
27/08:30pm 1.2 -4.0 0.2 93 0.4 S 17 20 9 11 - - 0.0
27/08:00pm 1.3 -3.9 0.1 92 0.5 S 17 22 9 12 - - 0.0
27/07:30pm 1.5 -4.0 0.3 92 0.5 S 19 24 10 13 - - 0.0
27/07:00pm 1.6 -3.6 0.4 92 0.5 S 17 24 9 13 - - 0.0
27/06:30pm 1.9 -3.3 0.4 90 0.6 S 17 22 9 12 - - 0.0
27/06:00pm 2.7 -2.0 1.1 89 0.7 S 15 20 8 11 - - 0.0
27/05:30pm 3.0 -2.0 1.4 89 0.7 S 17 20 9 11 - - 0.0
27/05:00pm 3.9 -1.1 1.3 83 1.1 SSW 17 22 9 12 - - 0.0
27/04:30pm 4.7 0.2 2.4 85 1.0 SSW 15 20 8 11 - - 0.0
27/04:00pm 4.3 -1.1 1.5 82 1.2 SSW 19 24 10 13 - - 0.0
27/03:30pm 4.2 0.0 1.7 84 1.1 S 13 19 7 10 - - 0.0
27/03:00pm 4.5 0.7 1.9 83 1.1 S 11 17 6 9 - - 0.0
27/02:30pm 4.3 0.4 1.2 80 1.3 SSW 11 17 6 9 - - 0.0
27/02:00pm 4.4 1.0 1.6 82 1.2 SSW 9 15 5 8 - - 0.0
27/01:30pm 4.4 0.9 3.5 94 0.4 SW 11 17 6 9 - - 0.0
27/01:00pm 4.1 0.6 3.5 96 0.3 SW 11 19 6 10 - - 0.0
27/12:30pm 4.1 1.4 3.8 98 0.1 SSW 7 15 4 8 - - 0.0
27/12:00pm 3.3 0.1 3.2 99 0.0 WSW 9 17 5 9 - - 0.0
27/11:30am 3.4 0.6 3.4 100 0.0 SW 7 17 4 9 - - 0.0
27/11:00am 2.7 -0.9 2.7 100 0.0 SW 11 20 6 11 - - 0.0
27/10:30am 2.3 -2.2 2.3 100 0.0 WSW 15 26 8 14 - - 0.0
27/10:00am 1.6 -3.4 1.6 100 0.0 SW 17 30 9 16 - - 0.0
27/09:30am 1.2 -6.3 1.2 100 0.0 SW 30 44 16 24 - - 0.0
27/09:00am 0.4 -6.5 0.4 100 0.0 SW 26 39 14 21 - - 16.6
27/08:37am 0.4 -7.8 0.4 100 0.0 SW 33 52 18 28 - - 16.6
27/08:30am 0.2 -8.4 0.2 100 0.0 SW 35 50 19 27 - - 16.6
27/08:00am 0.4 -7.6 0.4 100 0.0 SW 32 46 17 25 - - 16.6
27/07:30am 0.1 -7.9 0.1 100 0.0 SW 32 46 17 25 - - 16.6
27/07:00am 0.4 -7.6 0.4 100 0.0 SSW 32 44 17 24 - - 16.6
27/06:30am 1.0 -5.4 1.0 100 0.0 SW 24 39 13 21 - - 16.6
27/06:00am 1.0 -6.2 1.0 100 0.0 SSW 28 43 15 23 - - 16.2
27/05:30am 1.2 -5.5 1.2 100 0.0 SSW 26 41 14 22 - - 15.8
27/05:08am 1.4 -6.1 1.4 100 0.0 SW 30 50 16 27 - - 15.6
27/05:00am 1.4 -5.7 1.4 100 0.0 SSW 28 46 15 25 - - 15.6
27/04:30am 1.6 -5.1 1.6 100 0.0 SW 26 37 14 20 - - 15.4
27/04:00am 1.8 -4.5 1.8 100 0.0 SW 24 35 13 19 - - 14.8
27/03:30am 1.6 -5.1 1.6 100 0.0 SW 26 37 14 20 - - 14.4
27/03:00am 1.6 -5.5 1.6 100 0.0 WSW 28 43 15 23 - - 14.0
27/02:30am 1.5 -5.6 1.5 100 0.0 WSW 28 46 15 25 - - 13.8
27/02:02am 1.4 -5.7 1.4 100 0.0 WSW 28 48 15 26 - - 13.6
27/02:00am 1.4 -5.7 1.4 100 0.0 WSW 28 44 15 24 - - 13.6
27/01:30am 1.3 -5.0 1.3 100 0.0 WSW 24 44 13 24 - - 13.0
27/01:18am 1.2 -6.3 1.2 100 0.0 WSW 30 50 16 27 - - 13.0
27/01:00am 1.1 -6.4 1.1 100 0.0 WSW 30 44 16 24 - - 13.0
27/12:37am 1.1 -6.0 1.1 100 0.0 WSW 28 48 15 26 - - 12.8
27/12:30am 1.1 -6.0 1.1 100 0.0 WSW 28 46 15 25 - - 12.8
27/12:00am 1.0 -6.2 1.0 100 0.0 WSW 28 48 15 26 - - 12.8
 
Date/Time
EST
Temp
°C
App
Temp
°C
Dew
Point
°C
Rel
Hum
%
Delta-T
°C
Wind Press
QNH
hPa
Press
MSL
hPa
Rain since
9am
mm
Dir  Spd
km/h
Gust
km/h
Spd
kts
Gust
kts
26/11:34pm 0.9 -7.2 0.9 100 0.0 WSW 33 52 18 28 - - 12.6
26/11:30pm 0.9 -7.6 0.9 100 0.0 WSW 35 52 19 28 - - 12.6
26/11:13pm 0.9 -6.3 0.9 100 0.0 WSW 28 48 15 26 - - 12.6
26/11:00pm 0.9 -5.9 0.9 100 0.0 WSW 26 46 14 25 - - 12.6
26/10:30pm 0.7 -6.5 0.7 100 0.0 WSW 28 54 15 29 - - 12.6
26/10:00pm 0.8 -6.8 0.8 100 0.0 WSW 30 50 16 27 - - 12.6
26/09:30pm 0.9 -6.6 0.9 100 0.0 WSW 30 56 16 30 - - 12.6
26/09:00pm 0.9 -7.0 0.9 100 0.0 WSW 32 52 17 28 - - 12.6
26/08:34pm 1.0 -6.5 1.0 100 0.0 WSW 30 50 16 27 - - 12.4
26/08:30pm 1.0 -6.9 1.0 100 0.0 WSW 32 50 17 27 - - 12.4
26/08:00pm 0.9 -8.0 0.9 100 0.0 WSW 37 57 20 31 - - 12.4
26/07:30pm 1.0 -7.1 1.0 100 0.0 WSW 33 52 18 28 - - 12.4
26/07:00pm 1.0 -7.1 1.0 100 0.0 WSW 33 56 18 30 - - 12.4
26/06:45pm 1.3 -5.8 1.3 100 0.0 WSW 28 50 15 27 - - 12.4
26/06:30pm 1.2 -4.4 1.2 100 0.0 WSW 20 39 11 21 - - 12.4
26/06:00pm 1.2 -4.8 1.2 100 0.0 W 22 46 12 25 - - 12.4
26/05:44pm 1.1 -6.0 1.1 100 0.0 WSW 28 52 15 28 - - 12.4
26/05:30pm 1.6 -4.3 1.6 100 0.0 WSW 22 43 12 23 - - 12.4
26/05:00pm 1.6 -4.3 1.6 100 0.0 WSW 22 39 12 21 - - 12.4
26/04:30pm 1.8 -3.5 1.8 100 0.0 W 19 33 10 18 - - 12.2
26/04:00pm 1.6 -3.7 1.6 100 0.0 WSW 19 39 10 21 - - 11.8
26/03:30pm 1.7 -5.0 1.7 100 0.0 WSW 26 44 14 24 - - 11.2
26/03:08pm 1.4 -5.7 1.4 100 0.0 WSW 28 52 15 28 - - 11.2
26/03:00pm 1.7 -3.6 1.7 100 0.0 WSW 19 37 10 20 - - 11.0
26/02:30pm 1.9 -3.0 1.9 100 0.0 W 17 35 9 19 - - 10.6
26/02:00pm 1.5 -4.8 1.5 100 0.0 W 24 44 13 24 - - 10.4
26/01:33pm 1.2 -5.9 1.2 100 0.0 WSW 28 46 15 25 - - 9.8
26/01:30pm 1.1 -6.8 1.1 100 0.0 WSW 32 46 17 25 - - 9.8
26/01:19pm 0.8 -7.3 0.8 100 0.0 WSW 33 52 18 28 - - 9.8
26/01:14pm 0.8 -6.8 0.8 100 0.0 W 30 50 16 27 - - 9.8
26/01:00pm 0.9 -4.2 0.9 100 0.0 WSW 17 30 9 16 - - 9.2
26/12:30pm 0.8 -6.0 0.8 100 0.0 WSW 26 44 14 24 - - 8.4
26/12:23pm 0.7 -6.5 0.7 100 0.0 WSW 28 46 15 25 - - 7.8
26/12:00pm 0.6 -4.9 0.6 100 0.0 WSW 19 43 10 23 - - 6.4
26/11:30am 0.0 -6.5 0.0 100 0.0 W 24 50 13 27 - - 5.6
26/11:00am 0.0 -6.9 0.0 100 0.0 WSW 26 41 14 22 - - 4.8
26/10:30am 0.0 -4.8 0.0 100 0.0 WSW 15 24 8 13 - - 3.6
26/10:00am -0.1 -5.3 -0.1 100 0.0 WSW 17 28 9 15 - - 2.6
26/09:30am -0.3 -6.5 -0.3 100 0.0 SW 22 43 12 23 - - 1.4
26/09:00am -0.4 -6.6 -0.4 100 0.0 SW 22 37 12 20 - - 8.8
26/08:30am -0.8 -7.5 -0.8 100 0.0 SW 24 39 13 21 - - 8.8
26/08:00am -0.8 -8.2 -0.8 100 0.0 SW 28 48 15 26 - - 8.8
26/07:58am -0.9 -8.7 -0.9 100 0.0 SW 30 48 16 26 - - 8.8
26/07:30am -1.0 -7.7 -1.0 100 0.0 SW 24 35 13 19 - - 8.8
26/07:00am -1.2 -8.7 -1.2 100 0.0 SW 28 39 15 21 - - 8.8
26/06:30am -1.4 -8.5 -1.4 100 0.0 SW 26 44 14 24 - - 8.8
26/06:00am -1.2 -8.7 -1.2 100 0.0 SW 28 44 15 24 - - 8.8
26/05:30am -1.2 -8.7 -1.2 100 0.0 SW 28 43 15 23 - - 8.8
26/05:00am -1.1 -9.5 -1.1 100 0.0 WSW 33 54 18 29 - - 8.8
26/04:33am -1.1 -9.5 -1.1 100 0.0 WSW 33 54 18 29 - - 8.8
26/04:30am -1.2 -9.6 -1.2 100 0.0 WSW 33 48 18 26 - - 8.8
26/04:01am -0.9 -10.4 -0.9 100 0.0 WSW 39 59 21 32 - - 8.8
26/04:00am -0.9 -10.8 -0.9 100 0.0 WSW 41 59 22 32 - - 8.8
26/03:38am -0.8 -9.9 -0.8 100 0.0 WSW 37 56 20 30 - - 8.8
26/03:30am -0.8 -10.3 -0.8 100 0.0 WSW 39 52 21 28 - - 8.8
26/03:00am -0.6 -10.1 -0.6 100 0.0 WSW 39 59 21 32 - - 8.8
26/02:30am -0.5 -10.0 -0.5 100 0.0 WSW 39 59 21 32 - - 8.8
26/02:19am -0.4 -9.5 -0.4 100 0.0 WSW 37 56 20 30 - - 8.8
26/02:00am -0.5 -10.7 -0.5 100 0.0 WSW 43 57 23 31 - - 8.8
26/01:44am -0.6 -10.8 -0.6 100 0.0 WSW 43 63 23 34 - - 8.8
26/01:30am -0.5 -10.3 -0.5 100 0.0 WSW 41 56 22 30 - - 8.8
26/01:16am -0.4 -9.5 -0.4 100 0.0 WSW 37 57 20 31 - - 8.8
26/01:00am -0.5 -10.3 -0.5 100 0.0 SW 41 54 22 29 - - 8.8
26/12:30am -0.4 -10.6 -0.4 100 0.0 WSW 43 57 23 31 - - 8.8
26/12:08am -0.5 -10.0 -0.5 100 0.0 SW 39 57 21 31 - - 8.8
26/12:00am -0.6 -9.7 -0.6 100 0.0 SW 37 54 20 29 - - 8.8
 
Date/Time
EST
Temp
°C
App
Temp
°C
Dew
Point
°C
Rel
Hum
%
Delta-T
°C
Wind Press
QNH
hPa
Press
MSL
hPa
Rain since
9am
mm
Dir  Spd
km/h
Gust
km/h
Spd
kts
Gust
kts
25/11:30pm -0.7 -10.6 -0.7 100 0.0 WSW 41 56 22 30 - - 8.8
25/11:00pm -0.9 -10.8 -0.9 100 0.0 SW 41 54 22 29 - - 8.8
25/10:30pm -1.4 -10.2 -1.4 100 0.0 SW 35 50 19 27 - - 8.8
25/10:00pm -1.2 -10.4 -1.2 100 0.0 WSW 37 50 20 27 - - 8.8
25/09:30pm -1.3 -10.5 -1.3 100 0.0 WSW 37 52 20 28 - - 8.8
25/09:00pm -1.4 -11.7 -1.4 100 0.0 WSW 43 59 23 32 - - 8.8
25/08:30pm -1.4 -11.7 -1.4 100 0.0 WSW 43 63 23 34 - - 8.8
25/08:07pm -1.1 -11.6 -1.1 100 0.0 WSW 44 63 24 34 - - 8.8
25/08:00pm -1.0 -11.5 -1.0 100 0.0 WSW 44 59 24 32 - - 8.8
25/07:52pm -1.0 -10.9 -1.0 100 0.0 WSW 41 59 22 32 - - 8.8
25/07:30pm -1.1 -12.4 -1.1 100 0.0 WSW 48 61 26 33 - - 8.8
25/07:00pm -1.3 -10.9 -1.3 100 0.0 WSW 39 52 21 28 - - 8.8
25/06:37pm -1.0 -9.2 -1.0 100 0.0 WSW 32 50 17 27 - - 8.8
25/06:30pm -1.1 -9.9 -1.1 100 0.0 WSW 35 48 19 26 - - 8.8
25/06:00pm -1.5 -10.7 -1.5 100 0.0 SW 37 56 20 30 - - 8.8
25/05:43pm -0.8 -9.5 -0.8 100 0.0 WSW 35 57 19 31 - - 8.8
25/05:30pm -0.9 -9.7 -0.9 100 0.0 WSW 35 48 19 26 - - 8.8
25/05:03pm -0.9 -9.1 -0.9 100 0.0 WSW 32 56 17 30 - - 8.8
25/05:00pm -0.9 -9.3 -0.9 100 0.0 WSW 33 50 18 27 - - 8.8
25/04:43pm -0.6 -8.7 -0.6 100 0.0 SW 32 54 17 29 - - 8.6
25/04:30pm -0.3 -9.0 -0.3 100 0.0 WSW 35 46 19 25 - - 8.6
25/04:03pm -0.5 -8.8 -0.5 100 0.0 SW 33 54 18 29 - - 8.2
25/04:00pm -0.6 -9.3 -0.6 100 0.0 SW 35 54 19 29 - - 8.2
25/03:30pm -0.3 -8.6 -0.3 100 0.0 SW 33 54 18 29 - - 8.0
25/03:00pm -0.6 -8.0 -0.6 100 0.0 WSW 28 54 15 29 - - 7.6
25/02:39pm -0.1 -8.4 -0.1 100 0.0 SW 33 54 18 29 - - 7.0
25/02:30pm -0.3 -10.1 -0.3 100 0.0 SW 41 59 22 32 - - 6.6
25/02:02pm -0.7 -10.2 -0.7 100 0.0 SW 39 57 21 31 - - 4.2
25/02:00pm -0.8 -10.3 -0.8 100 0.0 SW 39 57 21 31 - - 3.8
25/01:53pm -0.7 -11.0 -0.7 100 0.0 W 43 57 23 31 - - 1.6
25/01:31pm -0.9 -8.7 -0.9 100 0.0 W 30 50 16 27 - - 0.8
25/01:30pm -0.8 -8.6 -0.8 100 0.0 W 30 43 16 23 - - 0.8
25/01:09pm -0.9 -4.3 -0.9 100 0.0 W 7 48 4 26 - - 0.8
25/01:00pm -1.1 -3.2 -1.1 100 0.0 CALM 0 0 0 0 - - 0.8
25/12:30pm -1.4 -3.6 -1.4 100 0.0 CALM 0 0 0 0 - - 0.8
25/12:00pm -2.3 -4.6 -2.3 100 0.0 CALM 0 0 0 0 - - 0.8
25/11:30am -2.3 -4.6 -2.3 100 0.0 CALM 0 0 0 0 - - 0.8
25/11:00am -2.4 -4.7 -2.4 100 0.0 CALM 0 0 0 0 - - 0.6
25/10:30am -1.9 -4.1 -1.9 100 0.0 CALM 0 0 0 0 - - 0.6
25/10:00am -1.3 -3.5 -1.3 100 0.0 CALM 0 0 0 0 - - 0.6
25/09:30am -1.0 -3.1 -1.0 100 0.0 CALM 0 0 0 0 - - 0.0
25/09:00am -0.9 -3.0 -0.9 100 0.0 CALM 0 0 0 0 - - 14.2
25/08:30am -1.0 -3.1 -1.0 100 0.0 CALM 0 0 0 0 - - 14.2
25/08:00am -1.1 -3.2 -1.1 100 0.0 CALM 0 0 0 0 - - 14.2
25/07:30am -1.2 -3.4 -1.2 100 0.0 CALM 0 0 0 0 - - 14.2

Other formats

Comma delimited format used in spreadsheet applications
http://www.bom.gov.au/fwo/IDV60801/IDV60801.94833.axf

JavaScript Object Notation format (JSON) in row-major order
http://www.bom.gov.au/fwo/IDV60801/IDV60801.94833.json

Data quality

Most of these data are generated automatically and are frequently updated. Quality checks on data are not normally performed. It is possible for incorrect values to appear. Refer to information at About Latest Weather Observations and please check the disclaimer before using these data.